Time;durP1;ratioP1;P1;durP2;ratioP2;P2;SDS_P1;SDS_P2;PMS_P1;PMS_P2;Temp;Humidity;BMP_temperature;BMP_pressure;BME280_temperature;BME280_humidity;BME280_pressure;Samples;Min_cycle;Max_cycle;Signal;HPM_P1;HPM_P2
2021/03/17 00:02:14;;;;;;;17.15;13.68;;;;;;;7.79;60.81;100703.63;10306321;28;20084;-64
2021/03/17 00:07:15;;;;;;;15.63;14.02;;;;;;;7.77;61.34;100686.09;10311853;28;20057;-66
2021/03/17 00:12:16;;;;;;;17.52;14.52;;;;;;;7.86;61.57;100682.88;10302040;28;20129;-65
2021/03/17 00:17:19;;;;;;;15.73;13.90;;;;;;;7.85;61.66;100672.34;10301587;28;20111;-67
2021/03/17 00:22:20;;;;;;;14.93;13.23;;;;;;;7.89;62.03;100687.13;10320964;28;20065;-63
2021/03/17 00:27:21;;;;;;;15.88;14.27;;;;;;;7.85;62.17;100688.25;10310691;28;20109;-66
2021/03/17 00:32:22;;;;;;;15.93;13.95;;;;;;;7.79;62.49;100682.41;10308574;28;20050;-63
2021/03/17 00:37:23;;;;;;;15.75;14.15;;;;;;;7.63;62.88;100647.22;10307961;28;20578;-65
2021/03/17 00:42:24;;;;;;;16.98;15.05;;;;;;;7.72;63.14;100691.69;10306650;28;20520;-64
2021/03/17 00:47:26;;;;;;;17.55;15.25;;;;;;;7.71;63.18;100695.25;10298749;28;20515;-65
2021/03/17 00:52:27;;;;;;;15.85;14.25;;;;;;;7.66;63.58;100699.16;10305690;28;20579;-67
2021/03/17 00:57:28;;;;;;;17.02;15.30;;;;;;;7.65;63.79;100694.81;10303067;28;20061;-66
2021/03/17 01:02:29;;;;;;;16.73;15.13;;;;;;;7.61;64.17;100699.41;10301912;28;20069;-65
2021/03/17 01:07:30;;;;;;;18.60;14.70;;;;;;;7.48;64.39;100703.78;10305639;28;20073;-65
2021/03/17 01:12:31;;;;;;;19.33;16.42;;;;;;;7.44;64.92;100709.25;10299421;28;20042;-65
2021/03/17 01:17:32;;;;;;;19.30;15.80;;;;;;;7.46;64.79;100689.75;10301863;28;20050;-65
2021/03/17 01:22:34;;;;;;;18.23;16.40;;;;;;;7.51;64.48;100685.91;10302261;28;20640;-65
2021/03/17 01:27:35;;;;;;;18.42;15.90;;;;;;;7.38;65.05;100687.59;10306118;28;20077;-66
2021/03/17 01:32:36;;;;;;;20.35;16.27;;;;;;;7.50;64.41;100701.88;10307650;28;20082;-66
2021/03/17 01:37:37;;;;;;;18.20;15.88;;;;;;;7.40;64.65;100697.16;10304938;28;20050;-65
2021/03/17 01:42:39;;;;;;;17.77;15.88;;;;;;;7.48;64.21;100693.19;10314643;28;20125;-65
2021/03/17 01:47:42;;;;;;;19.08;16.92;;;;;;;7.32;65.03;100688.78;10300042;28;20073;-65
2021/03/17 01:52:44;;;;;;;18.33;15.95;;;;;;;7.45;64.79;100699.50;10294021;28;20624;-65
2021/03/17 01:57:46;;;;;;;20.30;17.00;;;;;;;7.41;64.45;100690.88;10302731;28;20105;-65
2021/03/17 02:02:52;;;;;;;17.80;16.00;;;;;;;7.42;64.30;100702.34;10306299;28;20050;-65
2021/03/17 02:07:55;;;;;;;17.75;15.88;;;;;;;7.17;64.89;100689.72;10297060;28;20053;-63
2021/03/17 02:13:14;;;;;;;20.67;17.48;;;;;;;7.33;64.99;100706.41;10299994;28;20512;-64
2021/03/17 02:18:53;;;;;;;19.70;17.67;;;;;;;7.41;65.04;100708.59;10292135;28;20042;-64
2021/03/17 02:24:15;;;;;;;20.63;17.73;;;;;;;7.37;65.02;100699.09;10302630;28;20531;-63
2021/03/17 02:29:30;;;;;;;18.38;16.10;;;;;;;7.46;64.76;100706.53;10303991;28;20073;-65
2021/03/17 02:34:37;;;;;;;19.10;16.33;;;;;;;7.25;64.91;100693.63;10320190;28;20061;-65
2021/03/17 02:39:57;;;;;;;19.38;17.17;;;;;;;7.35;64.85;100712.44;10311851;23;20070;-69
2021/03/17 02:45:09;;;;;;;18.45;16.45;;;;;;;7.31;65.41;100712.72;10338439;28;20069;-70
2021/03/17 02:50:13;;;;;;;19.95;16.92;;;;;;;7.22;65.24;100699.09;10303764;28;20398;-68
2021/03/17 02:55:15;;;;;;;20.02;17.35;;;;;;;7.21;65.23;100715.91;10304888;28;20463;-69
2021/03/17 03:00:17;;;;;;;18.50;16.48;;;;;;;7.29;65.26;100699.56;10305069;28;20109;-67
2021/03/17 03:05:20;;;;;;;20.85;17.20;;;;;;;7.21;65.11;100712.44;10296388;28;20138;-69
2021/03/17 03:10:27;;;;;;;20.40;16.20;;;;;;;7.11;65.54;100700.66;10303903;28;20054;-69
2021/03/17 03:15:29;;;;;;;19.02;16.80;;;;;;;7.07;65.97;100716.75;10313758;28;20116;-69
2021/03/17 03:20:34;;;;;;;20.20;15.88;;;;;;;7.06;66.13;100720.31;10306190;28;20047;-69
2021/03/17 03:25:35;;;;;;;19.73;16.67;;;;;;;6.98;66.34;100711.97;10314545;28;20504;-68
2021/03/17 03:30:39;;;;;;;18.65;16.65;;;;;;;6.97;66.29;100715.56;10312420;28;20062;-69
2021/03/17 03:35:42;;;;;;;19.77;16.77;;;;;;;7.04;66.25;100703.69;10310859;28;20042;-68
2021/03/17 03:40:43;;;;;;;18.35;16.27;;;;;;;6.93;66.03;100698.16;10317242;28;20065;-69
2021/03/17 03:45:44;;;;;;;20.27;17.13;;;;;;;6.91;66.29;100713.28;10312526;28;20054;-68
2021/03/17 03:50:49;;;;;;;20.25;17.77;;;;;;;6.96;66.30;100721.78;10303021;28;20096;-68
2021/03/17 03:56:08;;;;;;;19.77;16.55;;;;;;;6.84;66.81;100722.50;10307532;28;20548;-68
2021/03/17 04:01:16;;;;;;;18.48;16.48;;;;;;;6.84;66.51;100733.94;10304416;28;20046;-69
2021/03/17 04:06:18;;;;;;;20.35;17.13;;;;;;;6.84;66.45;100730.44;10309567;28;20080;-68
2021/03/17 04:11:20;;;;;;;19.17;16.23;;;;;;;6.80;66.20;100735.06;10307904;28;20069;-67
2021/03/17 04:16:25;;;;;;;21.20;17.33;;;;;;;6.84;66.65;100739.22;10305412;28;20046;-68
2021/03/17 04:21:28;;;;;;;19.95;16.17;;;;;;;6.79;66.56;100738.66;10306551;28;20104;-68
2021/03/17 04:26:33;;;;;;;19.30;15.98;;;;;;;6.77;66.56;100743.19;10311286;28;20054;-69
2021/03/17 04:31:34;;;;;;;;;;;;;;;6.84;66.51;100751.63;10323460;28;20082;-68
2021/03/17 04:36:36;;;;;;;19.00;16.42;;;;;;;6.76;66.23;100749.41;10306970;28;20269;-69
2021/03/17 04:41:37;;;;;;;21.08;16.63;;;;;;;6.77;66.72;100751.13;10322439;28;20480;-68
2021/03/17 04:46:41;;;;;;;19.55;16.30;;;;;;;6.81;66.33;100765.03;10305029;28;20182;-68
2021/03/17 04:51:43;;;;;;;19.83;17.00;;;;;;;6.78;66.77;100758.09;10305666;28;20630;-68
2021/03/17 04:56:46;;;;;;;21.25;16.75;;;;;;;6.77;66.57;100760.84;10305931;28;20058;-69
2021/03/17 05:01:47;;;;;;;19.55;16.88;;;;;;;6.70;66.63;100750.59;10298138;28;20397;-70
2021/03/17 05:06:51;;;;;;;23.98;17.85;;;;;;;6.56;66.66;100747.91;10304112;28;20081;-69
2021/03/17 05:11:52;;;;;;;19.60;16.13;;;;;;;6.48;67.11;100736.88;10316452;28;20408;-69
2021/03/17 05:16:53;;;;;;;19.63;17.27;;;;;;;6.47;67.10;100748.38;10317989;28;20051;-68
2021/03/17 05:21:59;;;;;;;22.90;16.42;;;;;;;6.42;66.78;100763.66;10307664;28;20520;-69
2021/03/17 05:27:05;;;;;;;19.70;16.10;;;;;;;6.51;66.63;100779.03;10309104;28;20686;-69
2021/03/17 05:32:07;;;;;;;20.50;17.05;;;;;;;6.50;66.69;100759.66;10303615;28;20096;-68
2021/03/17 05:37:08;;;;;;;20.38;16.88;;;;;;;6.51;66.72;100760.50;10304394;28;20046;-69
2021/03/17 05:42:12;;;;;;;19.52;16.17;;;;;;;6.37;66.99;100774.50;10310803;28;20053;-68
2021/03/17 05:47:14;;;;;;;21.75;16.73;;;;;;;6.46;66.59;100778.44;10306991;28;20042;-68
2021/03/17 05:52:18;;;;;;;20.00;15.40;;;;;;;6.52;66.51;100788.66;10303456;28;20038;-69
2021/03/17 05:57:19;;;;;;;21.33;17.08;;;;;;;6.55;66.38;100801.72;10299309;28;20536;-68
2021/03/17 06:02:21;;;;;;;18.58;15.73;;;;;;;6.59;66.35;100795.34;10301560;28;20425;-68
2021/03/17 06:07:24;;;;;;;19.40;15.25;;;;;;;6.61;66.22;100779.38;10289610;28;20058;-68
2021/03/17 06:12:29;;;;;;;20.33;15.73;;;;;;;6.61;65.98;100782.88;10294384;28;20042;-68
2021/03/17 06:17:34;;;;;;;18.90;15.25;;;;;;;6.66;66.32;100786.09;10300901;28;20043;-69
2021/03/17 06:22:35;;;;;;;14.77;12.02;;;;;;;6.82;66.11;100790.56;10309665;28;20161;-69
2021/03/17 06:27:38;;;;;;;16.55;14.07;;;;;;;6.89;65.23;100792.75;10305597;28;20050;-70
2021/03/17 06:32:39;;;;;;;18.95;15.25;;;;;;;6.98;65.18;100801.97;10309782;28;20093;-70
2021/03/17 06:37:40;;;;;;;19.40;15.43;;;;;;;6.95;65.08;100806.56;10312669;28;20076;-70
2021/03/17 06:42:41;;;;;;;23.10;16.35;;;;;;;6.81;65.59;100812.66;10337549;28;20117;-70
2021/03/17 06:47:42;;;;;;;19.80;15.15;;;;;;;6.83;66.50;100816.06;10304800;28;20072;-69
2021/03/17 06:52:44;;;;;;;19.58;13.93;;;;;;;7.01;66.22;100817.69;10297173;28;20512;-68
2021/03/17 06:57:48;;;;;;;14.88;12.40;;;;;;;6.93;66.08;100824.34;10310267;28;20453;-71
2021/03/17 07:02:51;;;;;;;15.35;11.00;;;;;;;6.76;67.08;100817.38;10300531;28;20054;-69
2021/03/17 07:07:52;;;;;;;13.80;9.98;;;;;;;6.79;66.35;100811.91;10295621;28;20050;-69
2021/03/17 07:12:57;;;;;;;14.50;10.55;;;;;;;7.03;65.83;100821.09;10309362;28;20050;-68
2021/03/17 07:18:17;;;;;;;12.38;10.40;;;;;;;7.07;65.03;100806.75;10309302;28;20124;-69
2021/03/17 07:23:44;;;;;;;12.80;9.70;;;;;;;7.13;64.62;100815.25;10307112;28;20050;-71
2021/03/17 07:28:47;;;;;;;13.15;10.35;;;;;;;7.18;64.17;100815.88;10298666;28;20069;-70
2021/03/17 07:33:48;;;;;;;10.25;8.93;;;;;;;7.19;63.82;100825.50;10305660;28;20181;-70
2021/03/17 07:38:49;;;;;;;12.35;9.07;;;;;;;7.16;64.36;100821.25;10301497;28;20046;-69
2021/03/17 07:43:53;;;;;;;15.30;10.93;;;;;;;7.21;65.03;100818.34;10303041;28;20046;-69
2021/03/17 07:48:55;;;;;;;14.90;11.90;;;;;;;7.28;65.87;100814.41;10303522;28;20125;-69
2021/03/17 07:53:59;;;;;;;21.23;15.23;;;;;;;7.21;64.86;100823.66;10306726;28;20057;-70
2021/03/17 07:59:02;;;;;;;18.15;15.30;;;;;;;7.10;65.20;100816.31;10309519;28;20621;-70
2021/03/17 08:04:03;;;;;;;19.67;15.98;;;;;;;7.17;65.08;100815.00;10312697;28;20089;-69
2021/03/17 08:09:05;;;;;;;19.30;16.08;;;;;;;7.17;65.46;100828.25;10310652;28;20114;-68
2021/03/17 08:14:07;;;;;;;18.83;14.60;;;;;;;7.27;65.82;100828.59;10326351;28;20283;-69
2021/03/17 08:19:18;;;;;;;18.15;14.98;;;;;;;7.35;64.95;100814.91;10310740;28;20101;-69
2021/03/17 08:24:40;;;;;;;20.30;14.55;;;;;;;7.42;64.56;100816.25;10315200;28;20117;-70
2021/03/17 08:29:47;;;;;;;21.48;14.95;;;;;;;7.35;65.15;100805.13;10296927;28;20058;-70
2021/03/17 08:34:57;;;;;;;21.25;14.50;;;;;;;6.84;66.76;100801.91;10309716;28;20531;-69
2021/03/17 08:39:57;;;;;;;18.15;14.20;;;;;;;6.90;66.75;100809.47;10305307;28;20042;-69
2021/03/17 08:45:00;;;;;;;19.77;15.27;;;;;;;6.88;66.66;100804.28;10305952;23;20100;-71
2021/03/17 08:50:22;;;;;;;20.13;15.93;;;;;;;7.28;67.06;100806.47;10316097;28;20050;-70
2021/03/17 08:55:26;;;;;;;19.70;16.63;;;;;;;7.30;65.85;100807.22;10315748;28;20464;-71
2021/03/17 09:00:50;;;;;;;18.92;15.07;;;;;;;7.26;66.44;100816.28;10320973;28;20569;-72
2021/03/17 09:06:05;;;;;;;24.30;16.90;;;;;;;7.12;67.61;100821.53;10313237;28;20065;-70
2021/03/17 09:11:06;;;;;;;20.63;16.85;;;;;;;7.10;68.02;100821.63;10315142;28;20061;-71
2021/03/17 09:16:07;;;;;;;19.30;16.70;;;;;;;7.10;68.34;100826.91;10317755;28;20154;-72
2021/03/17 09:21:28;;;;;;;19.83;16.90;;;;;;;7.08;68.83;100819.03;10316631;28;20133;-71
2021/03/17 09:26:29;;;;;;;12.70;10.90;;;;;;;7.11;67.54;100833.03;10312119;28;20050;-71
2021/03/17 09:31:33;;;;;;;10.60;9.30;;;;;;;7.08;68.01;100839.34;10314365;28;20080;-71
2021/03/17 09:36:35;;;;;;;12.70;8.65;;;;;;;6.79;69.42;100838.34;10311664;28;20109;-71
2021/03/17 09:41:36;;;;;;;16.15;12.68;;;;;;;6.98;70.13;100831.09;10322400;28;20745;-71
2021/03/17 09:46:39;;;;;;;12.60;10.68;;;;;;;7.10;68.76;100836.63;10350899;28;20053;-71
2021/03/17 09:51:45;;;;;;;11.48;10.23;;;;;;;7.14;69.34;100838.16;10335004;28;20050;-71
2021/03/17 09:57:01;;;;;;;12.98;10.48;;;;;;;7.23;69.04;100835.84;10326418;28;20054;-71
2021/03/17 10:02:25;;;;;;;13.95;11.35;;;;;;;7.38;67.81;100836.75;10317937;28;20129;-71
2021/03/17 10:07:29;;;;;;;12.47;10.53;;;;;;;7.93;65.77;100839.75;10340246;28;20429;-72
2021/03/17 10:12:31;;;;;;;11.38;8.25;;;;;;;8.09;65.59;100843.19;10345266;28;20109;-72
2021/03/17 10:17:35;;;;;;;5.88;4.32;;;;;;;8.80;61.63;100844.13;10325347;28;20129;-71
2021/03/17 10:22:38;;;;;;;4.80;3.38;;;;;;;8.25;61.94;100845.72;10319995;28;20108;-72
2021/03/17 10:27:42;;;;;;;4.05;2.80;;;;;;;7.79;61.81;100846.72;10317064;28;20101;-70
2021/03/17 10:32:48;;;;;;;3.37;2.30;;;;;;;7.81;63.01;100851.06;10318471;28;20547;-71
2021/03/17 10:37:50;;;;;;;4.05;1.95;;;;;;;7.62;62.50;100849.50;10307796;28;20070;-71
2021/03/17 10:42:56;;;;;;;3.30;2.03;;;;;;;7.62;62.26;100846.84;10308210;28;20050;-70
2021/03/17 10:47:58;;;;;;;3.05;1.50;;;;;;;7.39;62.51;100841.09;10310925;28;20122;-71
2021/03/17 10:52:59;;;;;;;2.72;1.48;;;;;;;7.32;61.83;100842.41;10318031;28;20074;-70
2021/03/17 10:58:13;;;;;;;3.67;1.45;;;;;;;7.12;62.02;100840.06;10327791;28;20050;-70
2021/03/17 11:03:31;;;;;;;4.78;1.58;;;;;;;7.52;60.70;100843.03;10312673;28;20046;-71
2021/03/17 11:08:32;;;;;;;3.10;1.70;;;;;;;8.02;57.73;100846.31;10312764;28;20501;-70
2021/03/17 11:13:41;;;;;;;4.00;2.00;;;;;;;7.78;58.31;100834.41;10314797;28;20057;-71
2021/03/17 11:18:48;;;;;;;2.17;1.77;;;;;;;7.70;58.10;100846.41;10306631;28;20484;-70
2021/03/17 11:23:52;;;;;;;4.43;1.55;;;;;;;7.68;57.85;100843.84;10313185;28;20057;-71
2021/03/17 11:28:55;;;;;;;5.50;2.42;;;;;;;7.70;56.78;100830.50;10314890;28;20043;-72
2021/03/17 11:33:57;;;;;;;3.45;1.48;;;;;;;7.92;56.33;100830.94;10317821;28;20456;-72
2021/03/17 11:38:59;;;;;;;6.07;1.80;;;;;;;7.58;59.76;100832.94;10319358;28;20498;-72
2021/03/17 11:44:00;;;;;;;2.65;1.25;;;;;;;6.90;59.62;100830.66;10317292;28;20680;-71
2021/03/17 11:49:01;;;;;;;5.90;1.85;;;;;;;6.50;63.34;100831.06;10320381;28;20050;-71
2021/03/17 11:54:03;;;;;;;4.50;2.40;;;;;;;7.35;61.14;100826.31;10323885;28;20050;-71
2021/03/17 11:59:06;;;;;;;3.95;1.63;;;;;;;7.88;59.76;100825.91;10321125;28;20054;-71
2021/03/17 12:04:07;;;;;;;3.80;1.90;;;;;;;8.45;56.35;100817.16;10319430;28;20479;-70
2021/03/17 12:09:09;;;;;;;5.30;2.70;;;;;;;9.00;54.35;100812.78;10315875;28;20062;-70
2021/03/17 12:14:10;;;;;;;4.85;2.60;;;;;;;9.29;52.25;100804.72;10320389;28;20057;-71
2021/03/17 12:19:11;;;;;;;4.13;2.88;;;;;;;10.90;48.85;100802.44;10317384;28;20103;-71
2021/03/17 12:24:12;;;;;;;3.55;2.58;;;;;;;11.96;45.73;100797.16;10327237;28;20046;-71
2021/03/17 12:29:13;;;;;;;3.70;2.00;;;;;;;21.36;29.55;100783.09;10317872;28;20160;-71
2021/03/17 12:34:14;;;;;;;3.22;2.08;;;;;;;21.77;27.38;100780.06;10313695;28;20054;-73
2021/03/17 12:39:14;;;;;;;3.97;1.90;;;;;;;23.09;25.44;100778.47;10317726;28;20160;-71
2021/03/17 12:44:18;;;;;;;;;;;;;;;18.39;30.34;100788.09;10348486;28;20042;-71
2021/03/17 12:49:19;;;;;;;1.88;1.25;;;;;;;14.53;36.19;100782.19;10320308;28;19980;-71
2021/03/17 12:54:21;;;;;;;3.05;1.50;;;;;;;12.60;40.41;100773.53;10325182;28;20049;-70
2021/03/17 12:59:22;;;;;;;2.15;1.50;;;;;;;11.48;42.28;100782.13;10358836;28;20045;-72
2021/03/17 13:04:23;;;;;;;3.35;1.10;;;;;;;10.84;43.61;100776.25;10377799;28;20069;-71
2021/03/17 13:09:24;;;;;;;3.53;1.50;;;;;;;10.58;43.56;100776.34;10336674;28;20056;-71
2021/03/17 13:14:25;;;;;;;1.98;1.13;;;;;;;9.97;45.58;100781.50;10319659;28;20523;-71
2021/03/17 13:19:26;;;;;;;2.20;1.10;;;;;;;10.44;43.58;100767.53;10314406;28;20101;-71
2021/03/17 13:24:28;;;;;;;0.93;0.45;;;;;;;10.38;40.45;100768.00;10312953;28;20662;-70
2021/03/17 13:29:29;;;;;;;1.65;0.60;;;;;;;10.25;40.42;100780.44;10320010;28;20046;-70
2021/03/17 13:34:30;;;;;;;1.60;0.88;;;;;;;10.30;41.01;100774.78;10310801;28;20057;-70
2021/03/17 13:39:30;;;;;;;2.70;1.10;;;;;;;10.14;40.59;100770.56;10317602;28;20447;-71
2021/03/17 13:44:31;;;;;;;2.88;1.05;;;;;;;9.78;42.68;100782.78;10316076;28;20054;-71
2021/03/17 13:49:32;;;;;;;3.08;0.90;;;;;;;10.22;41.50;100765.56;10316948;28;20085;-71
2021/03/17 13:54:33;;;;;;;2.47;1.13;;;;;;;11.39;39.12;100777.47;10312126;28;20081;-71
2021/03/17 13:59:35;;;;;;;2.25;1.25;;;;;;;12.55;36.38;100766.72;10316894;28;20058;-72
2021/03/17 14:04:36;;;;;;;3.65;1.23;;;;;;;11.78;37.81;100782.56;10311405;28;20134;-71
2021/03/17 14:09:37;;;;;;;1.65;1.17;;;;;;;10.98;40.71;100789.44;10314038;28;20050;-71
2021/03/17 14:14:38;;;;;;;3.15;1.30;;;;;;;10.63;42.21;100792.84;10313410;28;20694;-71
2021/03/17 14:19:39;;;;;;;1.67;1.05;;;;;;;11.21;40.28;100784.19;10313274;28;20061;-71
2021/03/17 14:24:42;;;;;;;2.45;1.25;;;;;;;12.22;39.10;100791.63;10312771;28;20145;-72
2021/03/17 14:29:43;;;;;;;5.38;1.00;;;;;;;12.05;37.10;100792.94;10310412;28;20062;-72
2021/03/17 14:34:46;;;;;;;2.13;0.75;;;;;;;11.00;39.18;100795.47;10307414;28;20050;-72
2021/03/17 14:39:48;;;;;;;1.10;0.80;;;;;;;10.32;41.07;100810.13;10309823;28;20349;-71
2021/03/17 14:44:50;;;;;;;3.25;1.00;;;;;;;9.77;41.58;100815.66;10329806;23;20046;-70
2021/03/17 14:49:51;;;;;;;2.63;1.40;;;;;;;9.20;42.26;100803.50;10304715;28;20756;-68
2021/03/17 14:54:53;;;;;;;4.20;1.50;;;;;;;9.10;42.22;100808.59;10293043;28;20555;-69
2021/03/17 14:59:54;;;;;;;2.90;1.30;;;;;;;8.95;42.98;100815.75;10269887;28;20055;-69
2021/03/17 15:04:55;;;;;;;2.33;1.02;;;;;;;8.91;43.62;100816.03;10270764;28;20105;-67
2021/03/17 15:09:58;;;;;;;2.22;1.08;;;;;;;8.75;43.71;100814.38;10278462;28;20130;-71
2021/03/17 15:14:59;;;;;;;3.58;1.83;;;;;;;9.09;43.39;100816.66;10277969;28;20065;-70
2021/03/17 15:20:00;;;;;;;1.85;1.30;;;;;;;8.99;44.16;100819.03;10266723;28;20053;-69
2021/03/17 15:25:03;;;;;;;1.10;0.90;;;;;;;8.89;43.38;100817.94;10279356;28;20065;-68
2021/03/17 15:30:07;;;;;;;3.20;1.25;;;;;;;8.94;43.25;100821.16;10278984;28;20105;-69
2021/03/17 15:35:11;;;;;;;1.70;1.20;;;;;;;9.08;42.96;100830.88;10287264;28;20058;-69
2021/03/17 15:40:13;;;;;;;2.80;1.73;;;;;;;9.24;42.86;100820.94;10278016;28;20049;-68
2021/03/17 15:45:20;;;;;;;3.72;1.65;;;;;;;9.18;43.05;100827.50;10277591;28;20051;-69
2021/03/17 15:50:31;;;;;;;2.65;1.05;;;;;;;9.02;42.96;100838.31;10273540;28;20090;-68
2021/03/17 15:55:33;;;;;;;4.20;1.55;;;;;;;9.24;42.78;100844.03;10270301;28;20047;-69
2021/03/17 16:00:35;;;;;;;1.35;0.80;;;;;;;9.25;43.36;100858.97;10276781;28;20082;-70
2021/03/17 16:05:36;;;;;;;1.55;1.23;;;;;;;8.98;43.23;100843.91;10277174;28;20528;-68
2021/03/17 16:10:37;;;;;;;3.45;1.25;;;;;;;8.89;43.97;100855.09;10275137;28;20062;-67
2021/03/17 16:15:38;;;;;;;1.60;1.20;;;;;;;8.56;43.23;100861.63;10274992;28;21736;-69
2021/03/17 16:20:39;;;;;;;3.30;1.60;;;;;;;8.26;44.51;100867.81;10278253;28;20051;-68
2021/03/17 16:25:40;;;;;;;4.07;1.80;;;;;;;7.90;45.56;100879.69;10287380;28;20063;-68
2021/03/17 16:30:42;;;;;;;3.88;1.45;;;;;;;7.89;46.13;100878.00;10289862;28;20116;-70
2021/03/17 16:35:44;;;;;;;3.38;1.20;;;;;;;7.92;46.45;100885.75;10306851;28;20047;-69
2021/03/17 16:40:44;;;;;;;2.90;1.63;;;;;;;7.83;45.93;100899.56;10284597;28;20050;-70
2021/03/17 16:45:45;;;;;;;4.25;1.73;;;;;;;7.74;46.49;100883.22;10279018;28;20058;-69
2021/03/17 16:50:46;;;;;;;4.57;1.35;;;;;;;7.87;46.09;100893.13;10276074;28;20089;-71
2021/03/17 16:55:48;;;;;;;3.58;1.98;;;;;;;7.85;46.32;100893.22;10282706;28;20670;-69
2021/03/17 17:00:49;;;;;;;2.92;1.50;;;;;;;7.78;46.55;100892.72;10272737;28;20576;-70
2021/03/17 17:05:50;;;;;;;3.20;1.63;;;;;;;7.73;46.40;100904.53;10273348;28;20528;-71
2021/03/17 17:10:51;;;;;;;3.53;1.40;;;;;;;7.74;47.02;100911.53;10273343;28;20053;-70
2021/03/17 17:15:52;;;;;;;3.90;1.88;;;;;;;7.61;46.92;100916.69;10269923;28;20057;-70
2021/03/17 17:20:53;;;;;;;3.88;1.70;;;;;;;7.48;47.46;100929.78;10268613;28;20039;-70
2021/03/17 17:25:54;;;;;;;5.28;1.67;;;;;;;7.32;47.84;100921.84;10268889;28;20050;-71
2021/03/17 17:30:55;;;;;;;2.40;1.38;;;;;;;7.28;47.29;100941.53;10262741;28;20157;-72
2021/03/17 17:35:57;;;;;;;3.33;1.90;;;;;;;7.24;47.52;100945.28;10260823;28;20058;-71
2021/03/17 17:40:59;;;;;;;3.42;1.70;;;;;;;6.97;48.44;100953.78;10260598;28;20576;-74
2021/03/17 17:46:00;;;;;;;4.65;1.70;;;;;;;7.01;48.27;100955.34;10250750;28;20055;-69
2021/03/17 17:51:01;;;;;;;4.60;1.98;;;;;;;7.02;47.86;100961.47;10259151;28;20425;-71
2021/03/17 17:56:02;;;;;;;2.95;1.83;;;;;;;6.99;48.43;100973.06;10264659;28;20157;-69
2021/03/17 18:01:03;;;;;;;4.13;1.83;;;;;;;7.01;48.35;100973.88;10264014;28;20070;-71
2021/03/17 18:06:05;;;;;;;4.90;1.90;;;;;;;7.05;48.01;100972.75;10251654;28;20439;-71
2021/03/17 18:11:05;;;;;;;2.60;1.77;;;;;;;6.77;48.61;100977.81;10259601;28;20070;-71
2021/03/17 18:16:06;;;;;;;3.75;2.47;;;;;;;6.73;50.25;100990.38;10249486;28;20531;-70
2021/03/17 18:21:07;;;;;;;3.70;2.20;;;;;;;6.68;49.61;100995.03;10257596;28;20046;-71
2021/03/17 18:26:08;;;;;;;5.78;2.80;;;;;;;6.52;50.36;100979.97;10255612;28;20674;-70
2021/03/17 18:31:09;;;;;;;6.70;3.20;;;;;;;6.55;50.03;100989.53;10256550;28;20525;-70
2021/03/17 18:36:10;;;;;;;4.80;2.50;;;;;;;6.48;50.41;100999.56;10254373;28;20066;-69
2021/03/17 18:41:12;;;;;;;5.75;3.65;;;;;;;6.42;50.46;101002.53;10257174;28;20138;-71
2021/03/17 18:46:13;;;;;;;4.22;2.92;;;;;;;6.36;49.84;100990.50;10265470;28;20109;-73
2021/03/17 18:51:14;;;;;;;6.60;3.58;;;;;;;6.26;49.85;100994.53;10262719;28;20070;-72
2021/03/17 18:56:16;;;;;;;6.18;3.08;;;;;;;6.18;49.85;100996.69;10270260;28;20539;-72
2021/03/17 19:01:19;;;;;;;6.07;2.78;;;;;;;6.05;50.27;101000.88;10261577;28;20061;-71
2021/03/17 19:06:20;;;;;;;4.28;2.63;;;;;;;6.03;50.83;101002.75;10260705;28;20145;-72
2021/03/17 19:11:21;;;;;;;3.28;2.42;;;;;;;5.90;50.38;101000.69;10269487;28;20480;-74
2021/03/17 19:16:22;;;;;;;4.93;2.30;;;;;;;5.76;50.67;100995.22;10270815;28;20078;-70
2021/03/17 19:21:23;;;;;;;5.00;2.50;;;;;;;5.70;50.85;100996.34;10269162;28;20448;-72
2021/03/17 19:26:24;;;;;;;4.13;2.30;;;;;;;5.56;50.31;101006.75;10257998;28;20054;-70
2021/03/17 19:31:25;;;;;;;4.97;2.47;;;;;;;5.61;50.05;101012.66;10256786;28;20113;-72
2021/03/17 19:36:27;;;;;;;4.32;2.72;;;;;;;5.50;50.63;101005.25;10257209;28;20050;-72
2021/03/17 19:41:30;;;;;;;4.88;2.80;;;;;;;5.44;50.03;101001.09;10258666;28;20105;-72
2021/03/17 19:46:31;;;;;;;4.68;2.72;;;;;;;5.43;50.00;101007.28;10255565;28;20174;-71
2021/03/17 19:51:32;;;;;;;4.57;2.50;;;;;;;5.34;50.33;100998.97;10257823;28;20201;-70
2021/03/17 19:56:34;;;;;;;3.40;2.80;;;;;;;5.30;49.91;101003.53;10263965;28;21416;-71
2021/03/17 20:01:37;;;;;;;7.50;3.10;;;;;;;5.34;49.80;101014.81;10263458;28;20050;-71
2021/03/17 20:06:37;;;;;;;5.90;3.00;;;;;;;5.21;49.88;101003.94;10262317;28;20635;-71
2021/03/17 20:11:38;;;;;;;4.20;2.63;;;;;;;5.15;50.01;101005.09;10260736;28;20050;-70
2021/03/17 20:16:40;;;;;;;4.30;2.40;;;;;;;5.13;49.61;101004.31;10260915;28;20059;-72
2021/03/17 20:21:41;;;;;;;3.53;2.50;;;;;;;5.08;49.99;101011.59;10258915;28;20623;-71
2021/03/17 20:26:42;;;;;;;5.40;3.13;;;;;;;5.07;49.84;101007.22;10261586;28;20186;-72
2021/03/17 20:31:43;;;;;;;4.38;2.78;;;;;;;5.09;50.39;101015.94;10264999;28;20428;-70
2021/03/17 20:36:45;;;;;;;4.25;2.88;;;;;;;5.07;50.21;101023.91;10260562;28;20614;-72
2021/03/17 20:41:46;;;;;;;5.38;2.58;;;;;;;4.85;50.75;101018.75;10262284;28;20051;-70
2021/03/17 20:46:47;;;;;;;5.07;2.92;;;;;;;4.83;50.37;101010.03;10259679;28;20417;-71
2021/03/17 20:51:48;;;;;;;4.13;3.22;;;;;;;4.83;50.36;101012.66;10260741;28;20054;-71
2021/03/17 20:56:49;;;;;;;8.25;4.10;;;;;;;4.85;50.42;101023.16;10258868;28;20063;-71
2021/03/17 21:02:05;;;;;;;3.95;2.97;;;;;;;4.76;50.15;101027.94;10257052;28;20046;-71
2021/03/17 21:07:06;;;;;;;7.25;3.15;;;;;;;4.75;50.57;101042.03;10257645;28;20058;-72
2021/03/17 21:12:07;;;;;;;5.15;3.38;;;;;;;4.45;50.84;101056.53;10263842;28;20082;-73
2021/03/17 21:17:09;;;;;;;4.63;2.53;;;;;;;4.43;51.46;101064.53;10254451;28;20054;-73
2021/03/17 21:22:10;;;;;;;3.50;2.38;;;;;;;4.41;51.39;101069.84;10255445;28;22219;-71
2021/03/17 21:27:11;;;;;;;4.45;2.90;;;;;;;4.21;52.22;101069.81;10258813;28;20114;-72
2021/03/17 21:32:23;;;;;;;4.10;3.15;;;;;;;3.65;52.90;101058.00;10262635;28;20062;-72
2021/03/17 21:37:25;;;;;;;3.45;2.80;;;;;;;3.76;53.72;101083.91;10263178;28;20678;-71
2021/03/17 21:42:26;;;;;;;4.85;3.63;;;;;;;3.75;53.14;101085.66;10261297;28;20062;-73
2021/03/17 21:47:27;;;;;;;5.13;3.63;;;;;;;3.68;53.94;101097.38;10263766;28;20504;-73
2021/03/17 21:52:29;;;;;;;6.00;3.55;;;;;;;3.57;53.91;101100.38;10263815;28;20049;-72
2021/03/17 21:57:30;;;;;;;7.80;3.55;;;;;;;3.52;54.33;101103.19;10264205;28;20182;-71
2021/03/17 22:02:46;;;;;;;5.78;3.35;;;;;;;3.88;53.81;101113.25;10257190;28;20121;-72
2021/03/17 22:07:48;;;;;;;5.78;3.63;;;;;;;3.99;53.41;101104.06;10260475;28;20065;-70
2021/03/17 22:12:49;;;;;;;7.20;4.72;;;;;;;4.00;52.98;101097.88;10261081;28;20063;-74
2021/03/17 22:17:51;;;;;;;5.28;4.78;;;;;;;4.02;52.84;101106.56;10256573;28;20059;-72
2021/03/17 22:22:52;;;;;;;6.78;4.85;;;;;;;4.08;52.85;101127.41;10258716;28;20061;-70
2021/03/17 22:27:53;;;;;;;6.00;4.03;;;;;;;4.10;52.47;101114.19;10265241;28;20116;-69
2021/03/17 22:33:04;;;;;;;4.07;3.45;;;;;;;4.10;52.55;101119.44;10267978;28;20047;-70
2021/03/17 22:38:06;;;;;;;4.75;2.88;;;;;;;4.06;52.44;101095.84;10263434;28;20051;-71
2021/03/17 22:43:07;;;;;;;3.47;2.83;;;;;;;4.23;51.69;101121.56;10269215;28;20054;-70
2021/03/17 22:48:08;;;;;;;4.82;3.05;;;;;;;4.30;51.79;101114.25;10271804;28;20046;-70
2021/03/17 22:53:10;;;;;;;4.13;2.80;;;;;;;4.32;51.78;101103.63;10271107;28;20421;-69
2021/03/17 22:58:11;;;;;;;3.58;2.40;;;;;;;4.34;51.53;101101.78;10268506;28;20062;-71
2021/03/17 23:03:25;;;;;;;4.25;2.92;;;;;;;4.28;51.71;101091.50;10264591;28;20428;-70
2021/03/17 23:08:41;;;;;;;4.97;2.63;;;;;;;4.23;52.10;101089.94;10269785;28;20497;-67
2021/03/17 23:13:43;;;;;;;4.57;2.70;;;;;;;4.05;52.51;101093.28;10268000;28;20507;-67
2021/03/17 23:18:48;;;;;;;4.60;2.40;;;;;;;3.98;52.90;101091.81;10269776;28;20050;-70